Página principal
METAR-TAF:

METAR-TAF

Aeroportos :

Ouagadougou, Burkina Faso

latitude: 12-21N, longitude: 001-31W, altura: 316 m

Observação actual do tempo

O boletim foi feito há 22 minutos, às 19:00 UTC
Vento 4 kt de este
Temperatura 30°C
Humidade 31%
Pressão 1010 hPa
Visibilidade: 4500 m
poeira extensa

METAR: DFFD 141900Z 08004KT 4500 DU NSC 30/11 Q1010 BECMG 6000 NSW

Hora: 19:22 (19:22 UTC)

Previsão

O boletim foi feito há 2 horas e 22 minutos, às 17:00 UTC
Previsão válida de 14 às 18 UTC a 15 às 24 UTC
Vento 8 kt de es-sudeste
Visibilidade 10 km ou mais
sem nuvens abaixo de 1500 metros e sem cumulonimbus
Temporariamente
de 14 às 18 UTC a 14 às 21 UTC
Visibilidade: 4000 m
poeira extensa
Temporariamente
de 15 às 05 UTC a 15 às 10 UTC
Visibilidade: 2500 m
poeira extensa

TAF: DFFD 141700Z 1418/1524 12008KT CAVOK TEMPO 1418/1421 4000 DU TEMPO 1505/1510 2500 DU

Observações e previsões do tempo de mais de 4000 aeroportos (mensagens METAR e TAF).

As estações disponíveis são os pontos amarelos e vermelhos sobre o mapa.

Mova o rato sobre o mapa para ver o nome da estação.

Depois clique no ponto para visualizar as observações e previsões meteorológicas.

Para alterar o mapa : clique nos botões verdes com uma cruz preta para aumentar o zoom; no botão verde com uma pitada de zoom; ou nas setas verdes para mapas adjacentes.


METAR-TAF: